sensor_id;sensor_type;location;lat;lon;timestamp;P1;durP1;ratioP1;P2;durP2;ratioP2
12171;SDS011;6149;52.418;13.668;2023-06-26T00:02:24;15.53;;;13.97;;
12171;SDS011;6149;52.418;13.668;2023-06-26T00:04:50;15.20;;;13.90;;
12171;SDS011;6149;52.418;13.668;2023-06-26T00:07:18;16.20;;;14.77;;
12171;SDS011;6149;52.418;13.668;2023-06-26T00:09:47;16.80;;;15.10;;
12171;SDS011;6149;52.418;13.668;2023-06-26T00:12:14;16.23;;;14.63;;
12171;SDS011;6149;52.418;13.668;2023-06-26T00:14:41;15.83;;;14.43;;
12171;SDS011;6149;52.418;13.668;2023-06-26T00:17:09;14.30;;;13.10;;
12171;SDS011;6149;52.418;13.668;2023-06-26T00:19:36;14.20;;;12.90;;
12171;SDS011;6149;52.418;13.668;2023-06-26T00:22:03;14.97;;;13.53;;
12171;SDS011;6149;52.418;13.668;2023-06-26T00:24:31;15.67;;;14.27;;
12171;SDS011;6149;52.418;13.668;2023-06-26T00:27:01;16.70;;;15.13;;
12171;SDS011;6149;52.418;13.668;2023-06-26T00:29:29;15.80;;;14.30;;
12171;SDS011;6149;52.418;13.668;2023-06-26T00:32:04;15.07;;;13.73;;
12171;SDS011;6149;52.418;13.668;2023-06-26T00:34:31;15.07;;;13.70;;
12171;SDS011;6149;52.418;13.668;2023-06-26T00:36:57;15.63;;;14.13;;
12171;SDS011;6149;52.418;13.668;2023-06-26T00:39:30;15.23;;;13.73;;
12171;SDS011;6149;52.418;13.668;2023-06-26T00:41:56;14.70;;;13.40;;
12171;SDS011;6149;52.418;13.668;2023-06-26T00:44:24;15.37;;;13.80;;
12171;SDS011;6149;52.418;13.668;2023-06-26T00:46:52;15.63;;;14.23;;
12171;SDS011;6149;52.418;13.668;2023-06-26T00:49:19;17.17;;;15.47;;
12171;SDS011;6149;52.418;13.668;2023-06-26T00:51:48;15.67;;;14.00;;
12171;SDS011;6149;52.418;13.668;2023-06-26T00:54:16;14.77;;;13.47;;
12171;SDS011;6149;52.418;13.668;2023-06-26T00:56:45;13.93;;;12.73;;
12171;SDS011;6149;52.418;13.668;2023-06-26T00:59:14;14.80;;;13.50;;
12171;SDS011;6149;52.418;13.668;2023-06-26T01:01:42;14.07;;;12.83;;
12171;SDS011;6149;52.418;13.668;2023-06-26T01:04:10;14.67;;;13.27;;
12171;SDS011;6149;52.418;13.668;2023-06-26T01:06:42;14.10;;;12.90;;
12171;SDS011;6149;52.418;13.668;2023-06-26T01:09:16;13.87;;;12.57;;
12171;SDS011;6149;52.418;13.668;2023-06-26T01:11:44;13.83;;;12.43;;
12171;SDS011;6149;52.418;13.668;2023-06-26T01:14:12;15.27;;;13.77;;
12171;SDS011;6149;52.418;13.668;2023-06-26T01:16:40;14.00;;;12.73;;
12171;SDS011;6149;52.418;13.668;2023-06-26T01:19:13;15.13;;;13.63;;
12171;SDS011;6149;52.418;13.668;2023-06-26T01:21:50;15.27;;;13.77;;
12171;SDS011;6149;52.418;13.668;2023-06-26T01:24:27;14.30;;;13.07;;
12171;SDS011;6149;52.418;13.668;2023-06-26T01:27:03;14.37;;;13.13;;
12171;SDS011;6149;52.418;13.668;2023-06-26T01:29:32;14.07;;;12.87;;
12171;SDS011;6149;52.418;13.668;2023-06-26T01:32:00;14.40;;;13.00;;
12171;SDS011;6149;52.418;13.668;2023-06-26T01:34:27;15.43;;;13.77;;
12171;SDS011;6149;52.418;13.668;2023-06-26T01:36:58;15.60;;;14.00;;
12171;SDS011;6149;52.418;13.668;2023-06-26T01:39:28;13.57;;;12.27;;
12171;SDS011;6149;52.418;13.668;2023-06-26T01:41:57;15.07;;;13.67;;
12171;SDS011;6149;52.418;13.668;2023-06-26T01:44:28;14.83;;;13.53;;
12171;SDS011;6149;52.418;13.668;2023-06-26T01:46:59;14.30;;;13.00;;
12171;SDS011;6149;52.418;13.668;2023-06-26T01:49:45;14.17;;;12.83;;
12171;SDS011;6149;52.418;13.668;2023-06-26T01:52:19;13.90;;;12.63;;
12171;SDS011;6149;52.418;13.668;2023-06-26T01:54:56;15.97;;;14.30;;
12171;SDS011;6149;52.418;13.668;2023-06-26T01:57:31;14.53;;;13.23;;
12171;SDS011;6149;52.418;13.668;2023-06-26T02:00:08;14.23;;;12.97;;
12171;SDS011;6149;52.418;13.668;2023-06-26T02:02:40;14.80;;;13.40;;
12171;SDS011;6149;52.418;13.668;2023-06-26T02:05:07;14.07;;;12.93;;
12171;SDS011;6149;52.418;13.668;2023-06-26T02:07:33;15.30;;;13.80;;
12171;SDS011;6149;52.418;13.668;2023-06-26T02:10:00;15.13;;;13.63;;
12171;SDS011;6149;52.418;13.668;2023-06-26T02:12:28;16.57;;;15.13;;
12171;SDS011;6149;52.418;13.668;2023-06-26T02:14:56;16.87;;;14.37;;
12171;SDS011;6149;52.418;13.668;2023-06-26T02:17:24;16.93;;;15.43;;
12171;SDS011;6149;52.418;13.668;2023-06-26T02:19:50;15.83;;;14.23;;
12171;SDS011;6149;52.418;13.668;2023-06-26T02:22:17;15.77;;;14.27;;
12171;SDS011;6149;52.418;13.668;2023-06-26T02:24:45;15.67;;;14.27;;
12171;SDS011;6149;52.418;13.668;2023-06-26T02:27:11;15.83;;;14.33;;
12171;SDS011;6149;52.418;13.668;2023-06-26T02:29:38;16.77;;;15.33;;
12171;SDS011;6149;52.418;13.668;2023-06-26T02:32:06;15.17;;;13.77;;
12171;SDS011;6149;52.418;13.668;2023-06-26T02:34:34;15.23;;;13.83;;
12171;SDS011;6149;52.418;13.668;2023-06-26T02:37:02;15.90;;;14.50;;
12171;SDS011;6149;52.418;13.668;2023-06-26T02:39:33;16.43;;;14.90;;
12171;SDS011;6149;52.418;13.668;2023-06-26T02:42:00;16.47;;;14.97;;
12171;SDS011;6149;52.418;13.668;2023-06-26T02:44:31;16.20;;;14.77;;
12171;SDS011;6149;52.418;13.668;2023-06-26T02:47:01;15.50;;;14.10;;
12171;SDS011;6149;52.418;13.668;2023-06-26T02:49:28;16.33;;;13.87;;
12171;SDS011;6149;52.418;13.668;2023-06-26T02:51:58;14.17;;;12.97;;
12171;SDS011;6149;52.418;13.668;2023-06-26T02:54:28;14.13;;;12.73;;
12171;SDS011;6149;52.418;13.668;2023-06-26T02:56:55;14.60;;;13.30;;
12171;SDS011;6149;52.418;13.668;2023-06-26T02:59:25;15.17;;;13.77;;
12171;SDS011;6149;52.418;13.668;2023-06-26T03:01:53;15.77;;;14.33;;
12171;SDS011;6149;52.418;13.668;2023-06-26T03:04:20;16.27;;;14.70;;
12171;SDS011;6149;52.418;13.668;2023-06-26T03:06:47;15.40;;;14.07;;
12171;SDS011;6149;52.418;13.668;2023-06-26T03:09:15;16.33;;;14.73;;
12171;SDS011;6149;52.418;13.668;2023-06-26T03:11:44;17.63;;;16.00;;
12171;SDS011;6149;52.418;13.668;2023-06-26T03:14:12;16.63;;;15.03;;
12171;SDS011;6149;52.418;13.668;2023-06-26T03:16:38;14.90;;;13.60;;
12171;SDS011;6149;52.418;13.668;2023-06-26T03:19:06;15.73;;;14.33;;
12171;SDS011;6149;52.418;13.668;2023-06-26T03:21:33;16.57;;;15.03;;
12171;SDS011;6149;52.418;13.668;2023-06-26T03:24:03;16.93;;;15.43;;
12171;SDS011;6149;52.418;13.668;2023-06-26T03:26:32;15.73;;;14.33;;
12171;SDS011;6149;52.418;13.668;2023-06-26T03:28:59;15.03;;;13.70;;
12171;SDS011;6149;52.418;13.668;2023-06-26T03:31:30;16.07;;;14.63;;
12171;SDS011;6149;52.418;13.668;2023-06-26T03:33:59;18.07;;;16.30;;
12171;SDS011;6149;52.418;13.668;2023-06-26T03:36:26;17.53;;;15.87;;
12171;SDS011;6149;52.418;13.668;2023-06-26T03:38:54;17.53;;;15.93;;
12171;SDS011;6149;52.418;13.668;2023-06-26T03:41:23;16.50;;;14.93;;
12171;SDS011;6149;52.418;13.668;2023-06-26T03:43:53;16.10;;;14.70;;
12171;SDS011;6149;52.418;13.668;2023-06-26T03:46:19;16.83;;;15.20;;
12171;SDS011;6149;52.418;13.668;2023-06-26T03:48:46;15.80;;;14.40;;
12171;SDS011;6149;52.418;13.668;2023-06-26T03:51:12;17.00;;;15.40;;
12171;SDS011;6149;52.418;13.668;2023-06-26T03:53:39;17.67;;;16.03;;
12171;SDS011;6149;52.418;13.668;2023-06-26T03:56:07;17.13;;;15.53;;
12171;SDS011;6149;52.418;13.668;2023-06-26T03:58:33;18.30;;;16.60;;
12171;SDS011;6149;52.418;13.668;2023-06-26T04:01:09;17.70;;;16.10;;
12171;SDS011;6149;52.418;13.668;2023-06-26T04:03:37;18.90;;;17.10;;
12171;SDS011;6149;52.418;13.668;2023-06-26T04:06:05;18.60;;;16.80;;
12171;SDS011;6149;52.418;13.668;2023-06-26T04:08:33;17.53;;;15.93;;
12171;SDS011;6149;52.418;13.668;2023-06-26T04:11:01;16.63;;;15.13;;
12171;SDS011;6149;52.418;13.668;2023-06-26T04:13:30;17.27;;;15.77;;
12171;SDS011;6149;52.418;13.668;2023-06-26T04:15:59;17.20;;;15.73;;
12171;SDS011;6149;52.418;13.668;2023-06-26T04:18:35;16.70;;;15.30;;
12171;SDS011;6149;52.418;13.668;2023-06-26T04:21:07;17.93;;;16.33;;
12171;SDS011;6149;52.418;13.668;2023-06-26T04:23:36;17.00;;;15.60;;
12171;SDS011;6149;52.418;13.668;2023-06-26T04:26:04;17.63;;;16.03;;
12171;SDS011;6149;52.418;13.668;2023-06-26T04:28:31;20.30;;;18.50;;
12171;SDS011;6149;52.418;13.668;2023-06-26T04:30:59;25.13;;;22.73;;
12171;SDS011;6149;52.418;13.668;2023-06-26T04:33:29;24.37;;;21.87;;
12171;SDS011;6149;52.418;13.668;2023-06-26T04:36:04;23.77;;;21.47;;
12171;SDS011;6149;52.418;13.668;2023-06-26T04:38:33;21.97;;;19.87;;
12171;SDS011;6149;52.418;13.668;2023-06-26T04:41:00;21.47;;;19.57;;
12171;SDS011;6149;52.418;13.668;2023-06-26T04:43:30;23.77;;;21.57;;
12171;SDS011;6149;52.418;13.668;2023-06-26T04:46:02;23.63;;;21.33;;
12171;SDS011;6149;52.418;13.668;2023-06-26T04:48:30;22.70;;;20.70;;
12171;SDS011;6149;52.418;13.668;2023-06-26T04:50:59;24.07;;;21.87;;
12171;SDS011;6149;52.418;13.668;2023-06-26T04:53:28;23.27;;;21.07;;
12171;SDS011;6149;52.418;13.668;2023-06-26T04:56:04;22.50;;;20.63;;
12171;SDS011;6149;52.418;13.668;2023-06-26T04:58:34;24.37;;;22.37;;
12171;SDS011;6149;52.418;13.668;2023-06-26T05:01:04;23.43;;;21.33;;
12171;SDS011;6149;52.418;13.668;2023-06-26T05:03:34;22.33;;;20.37;;
12171;SDS011;6149;52.418;13.668;2023-06-26T05:06:03;24.13;;;21.90;;
12171;SDS011;6149;52.418;13.668;2023-06-26T05:08:36;21.87;;;19.77;;
12171;SDS011;6149;52.418;13.668;2023-06-26T05:11:03;22.80;;;20.80;;
12171;SDS011;6149;52.418;13.668;2023-06-26T05:13:31;22.73;;;20.60;;
12171;SDS011;6149;52.418;13.668;2023-06-26T05:15:58;23.87;;;21.57;;
12171;SDS011;6149;52.418;13.668;2023-06-26T05:18:25;23.00;;;20.87;;
12171;SDS011;6149;52.418;13.668;2023-06-26T05:20:53;22.00;;;19.80;;
12171;SDS011;6149;52.418;13.668;2023-06-26T05:23:21;22.47;;;20.43;;
12171;SDS011;6149;52.418;13.668;2023-06-26T05:25:58;21.53;;;19.57;;
12171;SDS011;6149;52.418;13.668;2023-06-26T05:28:28;22.17;;;19.97;;
12171;SDS011;6149;52.418;13.668;2023-06-26T05:31:02;20.83;;;19.03;;
12171;SDS011;6149;52.418;13.668;2023-06-26T05:33:31;20.80;;;18.93;;
12171;SDS011;6149;52.418;13.668;2023-06-26T05:36:04;20.13;;;18.10;;
12171;SDS011;6149;52.418;13.668;2023-06-26T05:38:35;21.73;;;19.83;;
12171;SDS011;6149;52.418;13.668;2023-06-26T05:41:06;19.00;;;17.40;;
12171;SDS011;6149;52.418;13.668;2023-06-26T05:43:34;20.07;;;18.37;;
12171;SDS011;6149;52.418;13.668;2023-06-26T05:46:02;19.63;;;17.93;;
12171;SDS011;6149;52.418;13.668;2023-06-26T05:48:32;20.13;;;18.33;;
12171;SDS011;6149;52.418;13.668;2023-06-26T05:51:00;20.17;;;18.47;;
12171;SDS011;6149;52.418;13.668;2023-06-26T05:53:29;20.10;;;18.30;;
12171;SDS011;6149;52.418;13.668;2023-06-26T05:55:58;18.37;;;16.77;;
12171;SDS011;6149;52.418;13.668;2023-06-26T05:58:27;17.77;;;16.27;;
12171;SDS011;6149;52.418;13.668;2023-06-26T06:00:54;17.97;;;16.27;;
12171;SDS011;6149;52.418;13.668;2023-06-26T06:03:22;18.37;;;16.80;;
12171;SDS011;6149;52.418;13.668;2023-06-26T06:05:49;16.33;;;14.93;;
12171;SDS011;6149;52.418;13.668;2023-06-26T06:08:17;16.27;;;14.87;;
12171;SDS011;6149;52.418;13.668;2023-06-26T06:10:43;16.70;;;15.07;;
12171;SDS011;6149;52.418;13.668;2023-06-26T06:13:12;16.03;;;14.67;;
12171;SDS011;6149;52.418;13.668;2023-06-26T06:15:40;16.10;;;14.77;;
12171;SDS011;6149;52.418;13.668;2023-06-26T06:18:09;16.73;;;15.23;;
12171;SDS011;6149;52.418;13.668;2023-06-26T06:20:37;15.03;;;13.70;;
12171;SDS011;6149;52.418;13.668;2023-06-26T06:23:04;15.30;;;13.80;;
12171;SDS011;6149;52.418;13.668;2023-06-26T06:25:32;15.23;;;13.93;;
12171;SDS011;6149;52.418;13.668;2023-06-26T06:28:00;13.63;;;12.43;;
12171;SDS011;6149;52.418;13.668;2023-06-26T06:30:28;14.07;;;12.87;;
12171;SDS011;6149;52.418;13.668;2023-06-26T06:32:56;12.93;;;11.80;;
12171;SDS011;6149;52.418;13.668;2023-06-26T06:35:24;12.63;;;11.63;;
12171;SDS011;6149;52.418;13.668;2023-06-26T06:37:50;11.57;;;10.67;;
12171;SDS011;6149;52.418;13.668;2023-06-26T06:40:21;12.43;;;11.43;;
12171;SDS011;6149;52.418;13.668;2023-06-26T06:42:49;11.90;;;10.90;;
12171;SDS011;6149;52.418;13.668;2023-06-26T06:45:18;10.93;;;10.03;;
12171;SDS011;6149;52.418;13.668;2023-06-26T06:47:45;10.73;;;9.83;;
12171;SDS011;6149;52.418;13.668;2023-06-26T06:50:13;11.67;;;10.67;;
12171;SDS011;6149;52.418;13.668;2023-06-26T06:52:42;10.97;;;9.97;;
12171;SDS011;6149;52.418;13.668;2023-06-26T06:55:09;10.53;;;9.63;;
12171;SDS011;6149;52.418;13.668;2023-06-26T06:57:38;10.17;;;9.37;;
12171;SDS011;6149;52.418;13.668;2023-06-26T07:00:08;10.77;;;9.67;;
12171;SDS011;6149;52.418;13.668;2023-06-26T07:02:37;9.20;;;8.50;;
12171;SDS011;6149;52.418;13.668;2023-06-26T07:05:05;9.47;;;8.77;;
12171;SDS011;6149;52.418;13.668;2023-06-26T07:07:35;9.60;;;8.57;;
12171;SDS011;6149;52.418;13.668;2023-06-26T07:10:04;9.30;;;8.50;;
12171;SDS011;6149;52.418;13.668;2023-06-26T07:12:35;9.83;;;9.00;;
12171;SDS011;6149;52.418;13.668;2023-06-26T07:15:04;10.97;;;9.03;;
12171;SDS011;6149;52.418;13.668;2023-06-26T07:17:34;9.83;;;8.83;;
12171;SDS011;6149;52.418;13.668;2023-06-26T07:20:06;9.07;;;8.30;;
12171;SDS011;6149;52.418;13.668;2023-06-26T07:22:38;9.83;;;9.00;;
12171;SDS011;6149;52.418;13.668;2023-06-26T07:25:06;8.87;;;8.07;;
12171;SDS011;6149;52.418;13.668;2023-06-26T07:27:35;9.23;;;8.33;;
12171;SDS011;6149;52.418;13.668;2023-06-26T07:30:06;9.10;;;8.20;;
12171;SDS011;6149;52.418;13.668;2023-06-26T07:32:36;8.83;;;8.03;;
12171;SDS011;6149;52.418;13.668;2023-06-26T07:35:04;9.17;;;8.43;;
12171;SDS011;6149;52.418;13.668;2023-06-26T07:37:32;9.07;;;8.20;;
12171;SDS011;6149;52.418;13.668;2023-06-26T07:40:16;9.30;;;8.50;;
12171;SDS011;6149;52.418;13.668;2023-06-26T07:42:43;9.30;;;8.30;;
12171;SDS011;6149;52.418;13.668;2023-06-26T07:45:11;8.20;;;7.50;;
12171;SDS011;6149;52.418;13.668;2023-06-26T07:47:38;8.10;;;7.40;;
12171;SDS011;6149;52.418;13.668;2023-06-26T07:50:07;8.37;;;7.53;;
12171;SDS011;6149;52.418;13.668;2023-06-26T07:52:34;8.23;;;7.63;;
12171;SDS011;6149;52.418;13.668;2023-06-26T07:55:06;8.20;;;7.60;;
12171;SDS011;6149;52.418;13.668;2023-06-26T07:57:35;8.23;;;7.53;;
12171;SDS011;6149;52.418;13.668;2023-06-26T08:00:06;7.80;;;7.10;;
12171;SDS011;6149;52.418;13.668;2023-06-26T08:02:37;7.77;;;7.07;;
12171;SDS011;6149;52.418;13.668;2023-06-26T08:05:05;8.63;;;7.23;;
12171;SDS011;6149;52.418;13.668;2023-06-26T08:07:34;7.17;;;6.57;;
12171;SDS011;6149;52.418;13.668;2023-06-26T08:10:01;7.03;;;6.27;;
12171;SDS011;6149;52.418;13.668;2023-06-26T08:12:33;7.47;;;6.40;;
12171;SDS011;6149;52.418;13.668;2023-06-26T08:15:03;7.47;;;6.83;;
12171;SDS011;6149;52.418;13.668;2023-06-26T08:17:34;6.83;;;6.13;;
12171;SDS011;6149;52.418;13.668;2023-06-26T08:20:05;6.30;;;5.33;;
12171;SDS011;6149;52.418;13.668;2023-06-26T08:22:36;8.13;;;6.40;;
12171;SDS011;6149;52.418;13.668;2023-06-26T08:25:04;6.90;;;6.30;;
12171;SDS011;6149;52.418;13.668;2023-06-26T08:27:35;7.00;;;6.23;;
12171;SDS011;6149;52.418;13.668;2023-06-26T08:30:03;6.60;;;6.00;;
12171;SDS011;6149;52.418;13.668;2023-06-26T08:32:32;6.00;;;5.50;;
12171;SDS011;6149;52.418;13.668;2023-06-26T08:35:01;6.27;;;5.67;;
12171;SDS011;6149;52.418;13.668;2023-06-26T08:37:29;5.80;;;5.40;;
12171;SDS011;6149;52.418;13.668;2023-06-26T08:39:58;5.63;;;5.23;;
12171;SDS011;6149;52.418;13.668;2023-06-26T08:42:25;6.37;;;5.87;;
12171;SDS011;6149;52.418;13.668;2023-06-26T08:44:54;6.20;;;5.60;;
12171;SDS011;6149;52.418;13.668;2023-06-26T08:47:21;6.60;;;5.97;;
12171;SDS011;6149;52.418;13.668;2023-06-26T08:49:51;6.10;;;5.53;;
12171;SDS011;6149;52.418;13.668;2023-06-26T08:52:33;5.80;;;5.30;;
12171;SDS011;6149;52.418;13.668;2023-06-26T08:55:05;5.70;;;5.10;;
12171;SDS011;6149;52.418;13.668;2023-06-26T08:57:36;5.80;;;5.30;;
12171;SDS011;6149;52.418;13.668;2023-06-26T09:00:18;6.03;;;5.53;;
12171;SDS011;6149;52.418;13.668;2023-06-26T09:02:45;5.87;;;5.30;;
12171;SDS011;6149;52.418;13.668;2023-06-26T09:05:14;5.43;;;5.03;;
12171;SDS011;6149;52.418;13.668;2023-06-26T09:07:41;5.50;;;5.00;;
12171;SDS011;6149;52.418;13.668;2023-06-26T09:10:07;5.30;;;4.80;;
12171;SDS011;6149;52.418;13.668;2023-06-26T09:12:35;5.17;;;4.70;;
12171;SDS011;6149;52.418;13.668;2023-06-26T09:15:04;5.83;;;5.33;;
12171;SDS011;6149;52.418;13.668;2023-06-26T09:17:38;5.27;;;4.73;;
12171;SDS011;6149;52.418;13.668;2023-06-26T09:20:07;5.03;;;4.60;;
12171;SDS011;6149;52.418;13.668;2023-06-26T09:22:36;5.40;;;4.90;;
12171;SDS011;6149;52.418;13.668;2023-06-26T09:25:05;4.77;;;4.40;;
12171;SDS011;6149;52.418;13.668;2023-06-26T09:27:34;5.37;;;4.87;;
12171;SDS011;6149;52.418;13.668;2023-06-26T09:30:03;5.30;;;4.80;;
12171;SDS011;6149;52.418;13.668;2023-06-26T09:32:40;5.10;;;4.60;;
12171;SDS011;6149;52.418;13.668;2023-06-26T09:35:09;5.60;;;5.10;;
12171;SDS011;6149;52.418;13.668;2023-06-26T09:37:39;6.00;;;5.33;;
12171;SDS011;6149;52.418;13.668;2023-06-26T09:40:08;5.73;;;5.27;;
12171;SDS011;6149;52.418;13.668;2023-06-26T09:42:35;5.70;;;5.30;;
12171;SDS011;6149;52.418;13.668;2023-06-26T09:45:04;5.80;;;5.30;;
12171;SDS011;6149;52.418;13.668;2023-06-26T09:47:32;5.83;;;5.43;;
12171;SDS011;6149;52.418;13.668;2023-06-26T09:50:08;5.63;;;5.23;;
12171;SDS011;6149;52.418;13.668;2023-06-26T09:52:53;6.07;;;5.57;;
12171;SDS011;6149;52.418;13.668;2023-06-26T09:55:20;5.50;;;5.00;;
12171;SDS011;6149;52.418;13.668;2023-06-26T09:57:49;5.37;;;4.97;;
12171;SDS011;6149;52.418;13.668;2023-06-26T10:00:18;5.37;;;4.97;;
12171;SDS011;6149;52.418;13.668;2023-06-26T10:02:45;5.70;;;5.20;;
12171;SDS011;6149;52.418;13.668;2023-06-26T10:05:14;5.03;;;4.63;;
12171;SDS011;6149;52.418;13.668;2023-06-26T10:07:40;5.90;;;5.33;;
12171;SDS011;6149;52.418;13.668;2023-06-26T10:10:07;5.40;;;5.00;;
12171;SDS011;6149;52.418;13.668;2023-06-26T10:12:37;5.90;;;5.40;;
12171;SDS011;6149;52.418;13.668;2023-06-26T10:15:05;6.03;;;5.53;;
12171;SDS011;6149;52.418;13.668;2023-06-26T10:17:39;6.00;;;5.57;;
12171;SDS011;6149;52.418;13.668;2023-06-26T10:20:09;5.63;;;5.23;;
12171;SDS011;6149;52.418;13.668;2023-06-26T10:22:39;5.30;;;4.90;;
12171;SDS011;6149;52.418;13.668;2023-06-26T10:25:14;5.77;;;5.27;;
12171;SDS011;6149;52.418;13.668;2023-06-26T10:27:45;6.00;;;5.47;;
12171;SDS011;6149;52.418;13.668;2023-06-26T10:30:17;5.53;;;5.13;;
12171;SDS011;6149;52.418;13.668;2023-06-26T10:32:52;6.17;;;5.57;;
12171;SDS011;6149;52.418;13.668;2023-06-26T10:35:19;6.33;;;5.83;;
12171;SDS011;6149;52.418;13.668;2023-06-26T10:37:48;6.13;;;5.73;;
12171;SDS011;6149;52.418;13.668;2023-06-26T10:40:26;6.50;;;6.00;;
12171;SDS011;6149;52.418;13.668;2023-06-26T10:43:05;6.73;;;5.87;;
12171;SDS011;6149;52.418;13.668;2023-06-26T10:45:34;6.37;;;5.60;;
12171;SDS011;6149;52.418;13.668;2023-06-26T10:48:04;6.73;;;6.13;;
12171;SDS011;6149;52.418;13.668;2023-06-26T10:50:31;6.30;;;5.77;;
12171;SDS011;6149;52.418;13.668;2023-06-26T10:53:10;6.87;;;5.80;;
12171;SDS011;6149;52.418;13.668;2023-06-26T10:55:47;7.27;;;6.10;;
12171;SDS011;6149;52.418;13.668;2023-06-26T11:04:04;6.70;;;6.10;;
12171;SDS011;6149;52.418;13.668;2023-06-26T11:06:36;6.30;;;5.70;;
12171;SDS011;6149;52.418;13.668;2023-06-26T11:09:09;5.97;;;5.37;;
12171;SDS011;6149;52.418;13.668;2023-06-26T11:11:55;5.10;;;4.70;;
12171;SDS011;6149;52.418;13.668;2023-06-26T11:14:41;5.00;;;4.60;;
12171;SDS011;6149;52.418;13.668;2023-06-26T11:17:14;5.77;;;4.73;;
12171;SDS011;6149;52.418;13.668;2023-06-26T11:19:41;5.33;;;4.93;;
12171;SDS011;6149;52.418;13.668;2023-06-26T11:22:09;6.57;;;5.97;;
12171;SDS011;6149;52.418;13.668;2023-06-26T11:24:37;7.20;;;6.50;;
12171;SDS011;6149;52.418;13.668;2023-06-26T11:27:05;6.47;;;5.97;;
12171;SDS011;6149;52.418;13.668;2023-06-26T11:29:34;5.53;;;5.03;;
12171;SDS011;6149;52.418;13.668;2023-06-26T11:32:04;5.70;;;5.03;;
12171;SDS011;6149;52.418;13.668;2023-06-26T11:34:34;5.90;;;5.40;;
12171;SDS011;6149;52.418;13.668;2023-06-26T11:37:04;6.03;;;5.53;;
12171;SDS011;6149;52.418;13.668;2023-06-26T11:39:40;5.57;;;5.17;;
12171;SDS011;6149;52.418;13.668;2023-06-26T11:42:07;5.40;;;4.90;;
12171;SDS011;6149;52.418;13.668;2023-06-26T11:44:39;5.63;;;5.10;;
12171;SDS011;6149;52.418;13.668;2023-06-26T11:47:13;6.27;;;5.77;;
12171;SDS011;6149;52.418;13.668;2023-06-26T11:49:44;5.37;;;4.97;;
12171;SDS011;6149;52.418;13.668;2023-06-26T11:52:13;5.70;;;5.10;;
12171;SDS011;6149;52.418;13.668;2023-06-26T11:54:44;6.03;;;5.53;;
12171;SDS011;6149;52.418;13.668;2023-06-26T11:57:13;5.97;;;5.47;;
12171;SDS011;6149;52.418;13.668;2023-06-26T11:59:41;6.17;;;5.67;;
12171;SDS011;6149;52.418;13.668;2023-06-26T12:02:10;6.20;;;5.60;;
12171;SDS011;6149;52.418;13.668;2023-06-26T12:04:41;6.30;;;5.70;;
12171;SDS011;6149;52.418;13.668;2023-06-26T12:07:09;6.30;;;5.70;;
12171;SDS011;6149;52.418;13.668;2023-06-26T12:09:40;6.17;;;5.67;;
12171;SDS011;6149;52.418;13.668;2023-06-26T12:12:10;6.37;;;5.87;;
12171;SDS011;6149;52.418;13.668;2023-06-26T12:14:39;6.13;;;5.63;;
12171;SDS011;6149;52.418;13.668;2023-06-26T12:17:08;6.37;;;5.87;;
12171;SDS011;6149;52.418;13.668;2023-06-26T12:19:38;7.50;;;6.10;;
12171;SDS011;6149;52.418;13.668;2023-06-26T12:22:09;6.40;;;5.80;;
12171;SDS011;6149;52.418;13.668;2023-06-26T12:24:36;5.70;;;5.30;;
12171;SDS011;6149;52.418;13.668;2023-06-26T12:27:11;7.00;;;6.00;;
12171;SDS011;6149;52.418;13.668;2023-06-26T12:29:46;6.57;;;5.97;;
12171;SDS011;6149;52.418;13.668;2023-06-26T12:32:18;7.13;;;5.93;;
12171;SDS011;6149;52.418;13.668;2023-06-26T12:34:46;6.63;;;6.03;;
12171;SDS011;6149;52.418;13.668;2023-06-26T12:37:15;6.37;;;5.87;;
12171;SDS011;6149;52.418;13.668;2023-06-26T12:39:46;6.80;;;6.20;;
12171;SDS011;6149;52.418;13.668;2023-06-26T12:42:17;6.63;;;6.00;;
12171;SDS011;6149;52.418;13.668;2023-06-26T12:44:45;7.27;;;6.13;;
12171;SDS011;6149;52.418;13.668;2023-06-26T12:47:13;6.37;;;5.83;;
12171;SDS011;6149;52.418;13.668;2023-06-26T12:49:41;6.70;;;6.10;;
12171;SDS011;6149;52.418;13.668;2023-06-26T12:52:12;6.57;;;6.03;;
12171;SDS011;6149;52.418;13.668;2023-06-26T12:54:43;6.93;;;6.30;;
12171;SDS011;6149;52.418;13.668;2023-06-26T12:57:09;6.77;;;6.27;;
12171;SDS011;6149;52.418;13.668;2023-06-26T12:59:40;6.43;;;5.93;;
12171;SDS011;6149;52.418;13.668;2023-06-26T13:02:08;6.80;;;6.30;;
12171;SDS011;6149;52.418;13.668;2023-06-26T13:04:37;6.77;;;6.17;;
12171;SDS011;6149;52.418;13.668;2023-06-26T13:07:07;6.40;;;5.90;;
12171;SDS011;6149;52.418;13.668;2023-06-26T13:09:35;6.73;;;6.10;;
12171;SDS011;6149;52.418;13.668;2023-06-26T13:12:02;6.83;;;6.13;;
12171;SDS011;6149;52.418;13.668;2023-06-26T13:14:31;7.03;;;6.27;;
12171;SDS011;6149;52.418;13.668;2023-06-26T13:17:06;7.17;;;6.50;;
12171;SDS011;6149;52.418;13.668;2023-06-26T13:19:36;6.90;;;6.30;;
12171;SDS011;6149;52.418;13.668;2023-06-26T13:22:04;7.50;;;6.33;;
12171;SDS011;6149;52.418;13.668;2023-06-26T13:24:31;8.53;;;6.53;;
12171;SDS011;6149;52.418;13.668;2023-06-26T13:27:00;7.37;;;6.67;;
12171;SDS011;6149;52.418;13.668;2023-06-26T13:29:27;7.10;;;6.30;;
12171;SDS011;6149;52.418;13.668;2023-06-26T13:31:55;7.13;;;6.53;;
12171;SDS011;6149;52.418;13.668;2023-06-26T13:34:24;8.73;;;6.57;;
12171;SDS011;6149;52.418;13.668;2023-06-26T13:36:55;7.10;;;6.23;;
12171;SDS011;6149;52.418;13.668;2023-06-26T13:39:24;7.53;;;6.93;;
12171;SDS011;6149;52.418;13.668;2023-06-26T13:41:53;7.57;;;6.87;;
12171;SDS011;6149;52.418;13.668;2023-06-26T13:44:19;7.53;;;6.83;;
12171;SDS011;6149;52.418;13.668;2023-06-26T13:46:46;7.40;;;6.70;;
12171;SDS011;6149;52.418;13.668;2023-06-26T13:49:12;6.90;;;6.30;;
12171;SDS011;6149;52.418;13.668;2023-06-26T13:51:42;7.10;;;6.50;;
12171;SDS011;6149;52.418;13.668;2023-06-26T13:54:11;8.03;;;7.03;;
12171;SDS011;6149;52.418;13.668;2023-06-26T13:56:41;7.97;;;7.27;;
12171;SDS011;6149;52.418;13.668;2023-06-26T13:59:08;8.00;;;7.17;;
12171;SDS011;6149;52.418;13.668;2023-06-26T14:01:36;7.27;;;6.67;;
12171;SDS011;6149;52.418;13.668;2023-06-26T14:04:05;7.30;;;6.43;;
12171;SDS011;6149;52.418;13.668;2023-06-26T14:06:32;7.67;;;6.97;;
12171;SDS011;6149;52.418;13.668;2023-06-26T14:09:05;7.83;;;7.23;;
12171;SDS011;6149;52.418;13.668;2023-06-26T14:11:35;7.53;;;6.87;;
12171;SDS011;6149;52.418;13.668;2023-06-26T14:14:01;7.87;;;6.70;;
12171;SDS011;6149;52.418;13.668;2023-06-26T14:16:30;7.63;;;7.00;;
12171;SDS011;6149;52.418;13.668;2023-06-26T14:18:57;7.40;;;6.77;;
12171;SDS011;6149;52.418;13.668;2023-06-26T14:21:25;7.40;;;6.80;;
12171;SDS011;6149;52.418;13.668;2023-06-26T14:23:54;7.20;;;6.60;;
12171;SDS011;6149;52.418;13.668;2023-06-26T14:26:24;7.33;;;6.80;;
12171;SDS011;6149;52.418;13.668;2023-06-26T14:28:51;7.90;;;7.20;;
12171;SDS011;6149;52.418;13.668;2023-06-26T14:31:19;7.73;;;7.03;;
12171;SDS011;6149;52.418;13.668;2023-06-26T14:33:46;7.23;;;6.63;;
12171;SDS011;6149;52.418;13.668;2023-06-26T14:36:13;7.57;;;6.87;;
12171;SDS011;6149;52.418;13.668;2023-06-26T14:38:41;7.67;;;6.50;;
12171;SDS011;6149;52.418;13.668;2023-06-26T14:41:09;7.43;;;6.83;;
12171;SDS011;6149;52.418;13.668;2023-06-26T14:43:43;7.77;;;7.00;;
12171;SDS011;6149;52.418;13.668;2023-06-26T14:46:10;10.43;;;5.50;;
12171;SDS011;6149;52.418;13.668;2023-06-26T14:48:37;10.33;;;4.63;;
12171;SDS011;6149;52.418;13.668;2023-06-26T14:51:05;9.73;;;5.07;;
12171;SDS011;6149;52.418;13.668;2023-06-26T14:53:31;4.87;;;4.30;;
12171;SDS011;6149;52.418;13.668;2023-06-26T14:56:02;7.53;;;4.27;;